Terminal Aerodrome Forecast
Issued by NWS Wakefield, VA

Home | Current Version | Previous Version | Text Only | Print | Product List | Glossary On
Versions: 1 2 3 4 5 6 7 8 9 10 11 12
000
FTUS41 KAKQ 192300
TAFRIC
TAF
KRIC 192340Z 2000/2024 11004KT P6SM SCT060 BKN100
     FM200600 VRB03KT P6SM SKC
     FM201000 09003KT 4SM BR SKC
     FM201300 08004KT P6SM SKC
     FM201600 10007KT P6SM SCT030=

USA.gov is the U.S. government's official web portal to all federal, state and local government web resources and services.